Time,TemperatureF,DewpointF,PressureIn,WindDirection,WindDirectionDegrees,WindSpeedMPH,WindSpeedGustMPH,Humidity,HourlyPrecipIn,Conditions,Clouds,dailyrainin,SolarRadiationWatts/m^2,SoftwareType,DateUTC
2013-02-15 00:01:00,28.4,21.5,30.00,NW,318,4.0,4.0,75,0.00,,,0.00,0,Wunderground v.1.15,2013-02-15 06:01:00,
2013-02-15 00:06:00,28.4,22.1,30.00,NW,311,4.0,6.0,77,0.00,,,0.00,0,Wunderground v.1.15,2013-02-15 06:06:00,
2013-02-15 00:13:00,28.5,22.8,30.00,NNW,329,5.0,7.0,79,0.00,,,0.00,0,Wunderground v.1.15,2013-02-15 06:13:00,
2013-02-15 00:19:00,28.4,23.3,30.01,WNW,295,6.0,9.0,81,0.00,,,0.00,0,Wunderground v.1.15,2013-02-15 06:19:00,
2013-02-15 00:25:00,28.4,23.6,30.01,WNW,292,6.0,9.0,82,0.00,,,0.00,0,Wunderground v.1.15,2013-02-15 06:25:00,
2013-02-15 00:30:00,28.4,23.9,30.01,WNW,296,6.0,6.0,83,0.00,,,0.00,0,Wunderground v.1.15,2013-02-15 06:30:00,
2013-02-15 00:36:00,28.3,24.1,30.01,NW,306,6.0,7.0,84,0.00,,,0.00,0,Wunderground v.1.15,2013-02-15 06:36:00,
2013-02-15 00:43:00,28.2,24.3,30.01,NW,317,6.0,6.0,85,0.00,,,0.00,0,Wunderground v.1.15,2013-02-15 06:43:00,
2013-02-15 00:49:00,28.2,24.3,30.01,NW,315,7.0,7.0,85,0.00,,,0.00,0,Wunderground v.1.15,2013-02-15 06:49:00,
2013-02-15 00:55:00,28.3,24.6,30.01,NW,315,7.0,10.0,86,0.00,,,0.00,0,Wunderground v.1.15,2013-02-15 06:55:00,
2013-02-15 01:01:00,28.3,24.6,30.02,NW,321,7.0,8.0,86,0.00,,,0.00,0,Wunderground v.1.15,2013-02-15 07:01:00,
2013-02-15 01:06:00,28.3,24.4,30.02,NW,308,8.0,12.0,85,0.00,,,0.00,0,Wunderground v.1.15,2013-02-15 07:06:00,
2013-02-15 01:11:00,28.1,23.6,30.02,North,355,11.0,17.0,83,0.00,,,0.00,0,Wunderground v.1.15,2013-02-15 07:11:00,
2013-02-15 01:17:00,27.5,22.4,30.02,NNE,19,14.0,17.0,81,0.00,,,0.00,0,Wunderground v.1.15,2013-02-15 07:17:00,
2013-02-15 01:22:00,27.1,22.3,30.02,NNW,345,12.0,13.0,82,0.00,,,0.00,0,Wunderground v.1.15,2013-02-15 07:22:00,
2013-02-15 01:28:00,26.8,22.3,30.02,North,355,9.0,13.0,83,0.00,,,0.00,0,Wunderground v.1.15,2013-02-15 07:28:00,
2013-02-15 01:33:00,26.6,22.1,30.04,NW,319,9.0,12.0,83,0.00,,,0.00,0,Wunderground v.1.15,2013-02-15 07:33:00,
2013-02-15 01:38:00,26.4,22.2,30.04,NW,323,9.0,12.0,84,0.00,,,0.00,0,Wunderground v.1.15,2013-02-15 07:38:00,
2013-02-15 01:43:00,26.2,22.0,30.04,North,355,9.0,11.0,84,0.00,,,0.00,0,Wunderground v.1.15,2013-02-15 07:43:00,
2013-02-15 01:49:00,26.0,21.8,30.05,NW,325,8.0,11.0,84,0.00,,,0.00,0,Wunderground v.1.15,2013-02-15 07:49:00,
2013-02-15 01:55:00,26.0,22.1,30.05,NNW,333,7.0,12.0,85,0.00,,,0.00,0,Wunderground v.1.15,2013-02-15 07:55:00,
2013-02-15 02:01:00,25.9,22.0,30.06,NNW,331,6.0,6.0,85,0.00,,,0.00,0,Wunderground v.1.15,2013-02-15 08:01:00,
2013-02-15 02:06:00,25.9,22.0,30.06,North,350,6.0,11.0,85,0.00,,,0.00,0,Wunderground v.1.15,2013-02-15 08:06:00,
2013-02-15 02:13:00,25.8,21.9,30.06,NNE,15,7.0,10.0,85,0.00,,,0.00,0,Wunderground v.1.15,2013-02-15 08:13:00,
2013-02-15 02:19:00,25.7,21.5,30.06,NNW,329,8.0,12.0,84,0.00,,,0.00,0,Wunderground v.1.15,2013-02-15 08:19:00,
2013-02-15 02:24:00,25.5,21.1,30.06,North,5,8.0,13.0,83,0.00,,,0.00,0,Wunderground v.1.15,2013-02-15 08:24:00,
2013-02-15 02:29:00,25.4,20.7,30.06,NNE,17,8.0,13.0,82,0.00,,,0.00,0,Wunderground v.1.15,2013-02-15 08:29:00,
2013-02-15 02:35:00,25.3,20.3,30.07,NNW,348,9.0,13.0,81,0.00,,,0.00,0,Wunderground v.1.15,2013-02-15 08:35:00,
2013-02-15 02:41:00,25.1,20.4,30.07,NNW,335,10.0,10.0,82,0.00,,,0.00,0,Wunderground v.1.15,2013-02-15 08:41:00,
2013-02-15 02:46:00,25.0,20.3,30.07,NNW,348,9.0,13.0,82,0.00,,,0.00,0,Wunderground v.1.15,2013-02-15 08:46:00,
2013-02-15 02:53:00,24.9,19.9,30.07,NNW,335,9.0,16.0,81,0.00,,,0.00,0,Wunderground v.1.15,2013-02-15 08:53:00,
2013-02-15 02:58:00,24.7,19.1,30.07,North,5,10.0,16.0,79,0.00,,,0.00,0,Wunderground v.1.15,2013-02-15 08:58:00,
2013-02-15 03:04:00,24.3,17.5,30.07,NNW,327,12.0,12.0,75,0.00,,,0.00,0,Wunderground v.1.15,2013-02-15 09:04:00,
2013-02-15 03:09:00,23.9,15.9,30.07,North,5,13.0,18.0,71,0.00,,,0.00,0,Wunderground v.1.15,2013-02-15 09:09:00,
2013-02-15 03:14:00,23.6,14.6,30.07,NNW,340,13.0,17.0,68,0.00,,,0.00,0,Wunderground v.1.15,2013-02-15 09:14:00,
2013-02-15 03:20:00,23.3,14.3,30.08,NNW,345,12.0,12.0,68,0.00,,,0.00,0,Wunderground v.1.15,2013-02-15 09:20:00,
2013-02-15 03:25:00,23.0,14.3,30.08,NW,321,11.0,12.0,69,0.00,,,0.00,0,Wunderground v.1.15,2013-02-15 09:25:00,
2013-02-15 03:31:00,22.6,14.3,30.09,NW,306,10.0,12.0,70,0.00,,,0.00,0,Wunderground v.1.15,2013-02-15 09:31:00,
2013-02-15 03:38:00,22.3,14.3,30.09,NW,324,10.0,13.0,71,0.00,,,0.00,0,Wunderground v.1.15,2013-02-15 09:38:00,
2013-02-15 03:44:00,22.1,14.4,30.09,NW,320,10.0,15.0,72,0.00,,,0.00,0,Wunderground v.1.15,2013-02-15 09:44:00,
2013-02-15 03:50:00,21.8,14.2,30.09,NW,315,11.0,11.0,72,0.00,,,0.00,0,Wunderground v.1.15,2013-02-15 09:50:00,
2013-02-15 03:56:00,21.6,14.3,30.09,NW,304,10.0,11.0,73,0.00,,,0.00,0,Wunderground v.1.15,2013-02-15 09:56:00,
2013-02-15 04:01:00,21.3,14.3,30.10,WNW,292,8.0,9.0,74,0.00,,,0.00,0,Wunderground v.1.15,2013-02-15 10:01:00,
2013-02-15 04:08:00,21.0,14.0,30.10,NW,312,9.0,11.0,74,0.00,,,0.00,0,Wunderground v.1.15,2013-02-15 10:08:00,
2013-02-15 04:13:00,20.9,14.2,30.10,NNW,327,8.0,10.0,75,0.00,,,0.00,0,Wunderground v.1.15,2013-02-15 10:13:00,
2013-02-15 04:19:00,20.8,14.1,30.11,NW,311,8.0,10.0,75,0.00,,,0.00,0,Wunderground v.1.15,2013-02-15 10:19:00,
2013-02-15 04:28:00,20.5,13.8,30.11,NNW,346,9.0,10.0,75,0.00,,,0.00,0,Wunderground v.1.15,2013-02-15 10:28:00,
2013-02-15 04:34:00,20.3,13.6,30.12,WNW,296,10.0,10.0,75,0.00,,,0.00,0,Wunderground v.1.15,2013-02-15 10:34:00,
2013-02-15 04:39:00,20.0,13.0,30.12,NNW,340,9.0,13.0,74,0.00,,,0.00,0,Wunderground v.1.15,2013-02-15 10:39:00,
2013-02-15 04:44:00,19.8,12.5,30.12,NNW,330,9.0,13.0,73,0.00,,,0.00,0,Wunderground v.1.15,2013-02-15 10:44:00,
2013-02-15 04:50:00,19.6,12.0,30.12,NNW,329,10.0,10.0,72,0.00,,,0.00,0,Wunderground v.1.15,2013-02-15 10:50:00,
2013-02-15 04:56:00,19.4,11.8,30.12,NNW,333,9.0,11.0,72,0.00,,,0.00,0,Wunderground v.1.15,2013-02-15 10:56:00,
2013-02-15 05:01:00,19.2,11.6,30.13,NW,319,8.0,11.0,72,0.00,,,0.00,0,Wunderground v.1.15,2013-02-15 11:01:00,
2013-02-15 05:08:00,19.0,11.8,30.13,NNW,336,7.0,11.0,73,0.00,,,0.00,0,Wunderground v.1.15,2013-02-15 11:08:00,
2013-02-15 05:13:00,18.8,11.3,30.13,NNW,341,7.0,8.0,72,0.00,,,0.00,0,Wunderground v.1.15,2013-02-15 11:13:00,
2013-02-15 05:19:00,18.7,11.2,30.14,NW,316,6.0,9.0,72,0.00,,,0.00,0,Wunderground v.1.15,2013-02-15 11:19:00,
2013-02-15 05:26:00,18.6,11.1,30.14,NW,323,6.0,7.0,72,0.00,,,0.00,0,Wunderground v.1.15,2013-02-15 11:26:00,
2013-02-15 05:33:00,18.4,11.2,30.14,NW,306,6.0,7.0,73,0.00,,,0.00,0,Wunderground v.1.15,2013-02-15 11:33:00,
2013-02-15 05:39:00,18.3,11.1,30.14,WNW,292,5.0,7.0,73,0.00,,,0.00,0,Wunderground v.1.15,2013-02-15 11:39:00,
2013-02-15 05:44:00,18.2,11.0,30.14,NW,318,6.0,9.0,73,0.00,,,0.00,0,Wunderground v.1.15,2013-02-15 11:44:00,
2013-02-15 05:50:00,18.0,10.8,30.15,NNW,327,6.0,6.0,73,0.00,,,0.00,0,Wunderground v.1.15,2013-02-15 11:50:00,
2013-02-15 05:55:00,17.8,10.9,30.15,NW,307,5.0,6.0,74,0.00,,,0.00,0,Wunderground v.1.15,2013-02-15 11:55:00,
2013-02-15 06:01:00,17.7,10.5,30.16,NW,311,4.0,6.0,73,0.00,,,0.00,0,Wunderground v.1.15,2013-02-15 12:01:00,
2013-02-15 06:06:00,17.6,10.4,30.16,NW,313,5.0,8.0,73,0.00,,,0.00,0,Wunderground v.1.15,2013-02-15 12:06:00,
2013-02-15 06:13:00,17.4,10.2,30.16,NW,309,6.0,7.0,73,0.00,,,0.00,0,Wunderground v.1.15,2013-02-15 12:13:00,
2013-02-15 06:18:00,17.3,10.1,30.16,WNW,300,6.0,7.0,73,0.00,,,0.00,0,Wunderground v.1.15,2013-02-15 12:18:00,
2013-02-15 06:24:00,17.1,10.2,30.16,NW,317,5.0,6.0,74,0.00,,,0.00,0,Wunderground v.1.15,2013-02-15 12:24:00,
2013-02-15 06:29:00,17.0,10.1,30.16,NW,306,5.0,6.0,74,0.00,,,0.00,0,Wunderground v.1.15,2013-02-15 12:29:00,
2013-02-15 06:34:00,16.9,10.0,30.16,NW,315,5.0,7.0,74,0.00,,,0.00,0,Wunderground v.1.15,2013-02-15 12:34:00,
2013-02-15 06:40:00,16.8,9.9,30.16,NW,312,5.0,5.0,74,0.00,,,0.00,0,Wunderground v.1.15,2013-02-15 12:40:00,
2013-02-15 06:45:00,16.7,9.8,30.17,WNW,301,5.0,5.0,74,0.00,,,0.00,0,Wunderground v.1.15,2013-02-15 12:45:00,
2013-02-15 06:51:00,16.6,10.1,30.17,NW,313,4.0,6.0,75,0.00,,,0.00,0,Wunderground v.1.15,2013-02-15 12:51:00,
2013-02-15 06:56:00,16.5,10.0,30.17,WNW,295,4.0,6.0,75,0.00,,,0.00,7,Wunderground v.1.15,2013-02-15 12:56:00,
2013-02-15 07:03:00,16.3,9.8,30.17,NW,304,4.0,4.0,75,0.00,,,0.00,11,Wunderground v.1.15,2013-02-15 13:03:00,
2013-02-15 07:09:00,16.3,10.1,30.17,WNW,294,4.0,5.0,76,0.00,,,0.00,14,Wunderground v.1.15,2013-02-15 13:09:00,
2013-02-15 07:15:00,16.2,10.0,30.19,WNW,292,4.0,5.0,76,0.00,,,0.00,18,Wunderground v.1.15,2013-02-15 13:15:00,
2013-02-15 07:20:00,16.1,9.9,30.19,West,281,4.0,6.0,76,0.00,,,0.00,19,Wunderground v.1.15,2013-02-15 13:20:00,
2013-02-15 07:26:00,16.1,9.9,30.19,WNW,293,4.0,6.0,76,0.00,,,0.00,21,Wunderground v.1.15,2013-02-15 13:26:00,
2013-02-15 07:31:00,16.1,9.9,30.19,WNW,290,4.0,5.0,76,0.00,,,0.00,21,Wunderground v.1.15,2013-02-15 13:31:00,
2013-02-15 07:36:00,16.2,9.7,30.19,WNW,300,5.0,6.0,75,0.00,,,0.00,23,Wunderground v.1.15,2013-02-15 13:36:00,
2013-02-15 07:43:00,16.2,9.7,30.19,NNW,331,6.0,8.0,75,0.00,,,0.00,26,Wunderground v.1.15,2013-02-15 13:43:00,
2013-02-15 07:49:00,16.2,9.7,30.19,WNW,301,5.0,8.0,75,0.00,,,0.00,42,Wunderground v.1.15,2013-02-15 13:49:00,
2013-02-15 07:55:00,16.2,9.7,30.19,NW,311,4.0,6.0,75,0.00,,,0.00,33,Wunderground v.1.15,2013-02-15 13:55:00,
2013-02-15 08:01:00,16.2,9.7,30.20,NW,306,4.0,5.0,75,0.00,,,0.00,63,Wunderground v.1.15,2013-02-15 14:01:00,
2013-02-15 08:08:00,16.3,9.8,30.20,WNW,287,5.0,6.0,75,0.00,,,0.00,33,Wunderground v.1.15,2013-02-15 14:08:00,
2013-02-15 08:13:00,16.4,9.9,30.20,WNW,298,5.0,6.0,75,0.00,,,0.00,35,Wunderground v.1.15,2013-02-15 14:13:00,
2013-02-15 08:19:00,16.6,9.8,30.20,NW,307,6.0,7.0,74,0.00,,,0.00,202,Wunderground v.1.15,2013-02-15 14:19:00,
2013-02-15 08:25:00,16.8,9.9,30.20,NW,318,6.0,7.0,74,0.00,,,0.00,232,Wunderground v.1.15,2013-02-15 14:25:00,
2013-02-15 08:30:00,17.0,9.8,30.21,WNW,292,7.0,8.0,73,0.00,,,0.00,272,Wunderground v.1.15,2013-02-15 14:30:00,
2013-02-15 08:36:00,17.1,9.9,30.21,NW,319,7.0,9.0,73,0.00,,,0.00,288,Wunderground v.1.15,2013-02-15 14:36:00,
2013-02-15 08:43:00,17.3,10.1,30.21,NW,306,6.0,8.0,73,0.00,,,0.00,329,Wunderground v.1.15,2013-02-15 14:43:00,
2013-02-15 08:49:00,17.7,10.5,30.21,WNW,295,5.0,9.0,73,0.00,,,0.00,338,Wunderground v.1.15,2013-02-15 14:49:00,
2013-02-15 08:55:00,17.7,10.2,30.21,WNW,289,6.0,9.0,72,0.00,,,0.00,334,Wunderground v.1.15,2013-02-15 14:55:00,
2013-02-15 09:01:00,18.0,10.5,30.21,NNW,337,6.0,8.0,72,0.00,,,0.00,367,Wunderground v.1.15,2013-02-15 15:01:00,
2013-02-15 09:06:00,18.1,10.3,30.21,NNW,331,7.0,10.0,71,0.00,,,0.00,381,Wunderground v.1.15,2013-02-15 15:06:00,
2013-02-15 09:13:00,18.1,10.3,30.21,NNW,327,9.0,9.0,71,0.00,,,0.00,392,Wunderground v.1.15,2013-02-15 15:13:00,
2013-02-15 09:18:00,18.5,10.7,30.21,NNW,331,8.0,9.0,71,0.00,,,0.00,371,Wunderground v.1.15,2013-02-15 15:18:00,
2013-02-15 09:24:00,18.6,10.4,30.21,WNW,302,7.0,11.0,70,0.00,,,0.00,406,Wunderground v.1.15,2013-02-15 15:24:00,
2013-02-15 09:30:00,18.7,10.5,30.22,WNW,286,8.0,12.0,70,0.00,,,0.00,431,Wunderground v.1.15,2013-02-15 15:30:00,
2013-02-15 09:36:00,18.8,10.6,30.22,NNW,333,8.0,12.0,70,0.00,,,0.00,445,Wunderground v.1.15,2013-02-15 15:36:00,
2013-02-15 09:41:00,19.0,10.5,30.22,WNW,303,8.0,9.0,69,0.00,,,0.00,455,Wunderground v.1.15,2013-02-15 15:41:00,
2013-02-15 09:48:00,19.1,10.9,30.22,West,279,8.0,10.0,70,0.00,,,0.00,471,Wunderground v.1.15,2013-02-15 15:48:00,
2013-02-15 09:54:00,19.4,11.2,30.22,WNW,296,7.0,13.0,70,0.00,,,0.00,483,Wunderground v.1.15,2013-02-15 15:54:00,
2013-02-15 09:59:00,19.5,10.6,30.22,WNW,297,7.0,13.0,68,0.00,,,0.00,492,Wunderground v.1.15,2013-02-15 15:59:00,
2013-02-15 10:05:00,19.5,11.0,30.22,WNW,298,7.0,8.0,69,0.00,,,0.00,504,Wunderground v.1.15,2013-02-15 16:05:00,
2013-02-15 10:10:00,19.5,10.6,30.22,NW,313,8.0,9.0,68,0.00,,,0.00,513,Wunderground v.1.15,2013-02-15 16:10:00,
2013-02-15 10:15:00,19.7,10.8,30.22,WNW,290,8.0,9.0,68,0.00,,,0.00,522,Wunderground v.1.15,2013-02-15 16:15:00,
2013-02-15 10:21:00,20.0,11.1,30.22,West,263,6.0,6.0,68,0.00,,,0.00,534,Wunderground v.1.15,2013-02-15 16:21:00,
2013-02-15 10:26:00,20.2,11.0,30.22,WNW,297,6.0,7.0,67,0.00,,,0.00,541,Wunderground v.1.15,2013-02-15 16:26:00,
2013-02-15 10:31:00,20.5,11.6,30.22,NNW,333,5.0,8.0,68,0.00,,,0.00,550,Wunderground v.1.15,2013-02-15 16:31:00,
2013-02-15 10:38:00,20.4,10.8,30.22,NNW,329,7.0,10.0,66,0.00,,,0.00,557,Wunderground v.1.15,2013-02-15 16:38:00,
2013-02-15 10:44:00,20.6,11.4,30.22,West,279,7.0,8.0,67,0.00,,,0.00,573,Wunderground v.1.15,2013-02-15 16:44:00,
2013-02-15 10:50:00,21.0,11.4,30.22,WNW,295,8.0,8.0,66,0.00,,,0.00,577,Wunderground v.1.15,2013-02-15 16:50:00,
2013-02-15 10:55:00,21.3,11.7,30.22,NW,317,9.0,12.0,66,0.00,,,0.00,527,Wunderground v.1.15,2013-02-15 16:55:00,
2013-02-15 11:00:00,21.1,11.2,30.22,WNW,290,8.0,8.0,65,0.00,,,0.00,534,Wunderground v.1.15,2013-02-15 17:00:00,
2013-02-15 11:06:00,21.3,12.0,30.22,WNW,287,8.0,10.0,67,0.00,,,0.00,592,Wunderground v.1.15,2013-02-15 17:06:00,
2013-02-15 11:13:00,21.5,11.5,30.22,WNW,285,8.0,12.0,65,0.00,,,0.00,571,Wunderground v.1.15,2013-02-15 17:13:00,
2013-02-15 11:18:00,21.5,11.2,30.21,NW,311,8.0,13.0,64,0.00,,,0.00,529,Wunderground v.1.15,2013-02-15 17:18:00,
2013-02-15 11:24:00,21.7,11.0,30.21,WNW,299,9.0,12.0,63,0.00,,,0.00,663,Wunderground v.1.15,2013-02-15 17:24:00,
2013-02-15 11:30:00,21.7,11.0,30.21,NW,313,9.0,9.0,63,0.00,,,0.00,492,Wunderground v.1.15,2013-02-15 17:30:00,
2013-02-15 11:35:00,21.8,11.5,30.21,WNW,300,9.0,12.0,64,0.00,,,0.00,584,Wunderground v.1.15,2013-02-15 17:35:00,
2013-02-15 11:40:00,22.1,12.1,30.21,WNW,291,8.0,11.0,65,0.00,,,0.00,571,Wunderground v.1.15,2013-02-15 17:40:00,
2013-02-15 11:46:00,22.1,11.4,30.21,WNW,300,8.0,11.0,63,0.00,,,0.00,626,Wunderground v.1.15,2013-02-15 17:46:00,
2013-02-15 11:53:00,22.2,10.8,30.21,West,280,9.0,10.0,61,0.00,,,0.00,624,Wunderground v.1.15,2013-02-15 17:53:00,
2013-02-15 11:58:00,22.4,11.3,30.21,West,279,9.0,13.0,62,0.00,,,0.00,619,Wunderground v.1.15,2013-02-15 17:58:00,
2013-02-15 12:04:00,22.2,10.0,30.21,WNW,299,10.0,14.0,59,0.00,,,0.00,622,Wunderground v.1.15,2013-02-15 18:04:00,
2013-02-15 12:10:00,22.4,11.0,30.21,WNW,283,11.0,11.0,61,0.00,,,0.00,626,Wunderground v.1.15,2013-02-15 18:10:00,
2013-02-15 12:15:00,22.7,11.6,30.21,NW,311,9.0,11.0,62,0.00,,,0.00,624,Wunderground v.1.15,2013-02-15 18:15:00,
2013-02-15 12:20:00,22.7,10.9,30.21,WNW,296,8.0,8.0,60,0.00,,,0.00,622,Wunderground v.1.15,2013-02-15 18:20:00,
2013-02-15 12:26:00,22.8,11.0,30.21,West,271,9.0,11.0,60,0.00,,,0.00,633,Wunderground v.1.15,2013-02-15 18:26:00,
2013-02-15 12:33:00,23.0,11.2,30.20,NW,316,10.0,10.0,60,0.00,,,0.00,626,Wunderground v.1.15,2013-02-15 18:33:00,
2013-02-15 12:39:00,23.0,10.8,30.20,WNW,300,10.0,14.0,59,0.00,,,0.00,617,Wunderground v.1.15,2013-02-15 18:39:00,
2013-02-15 12:45:00,23.2,11.4,30.20,West,279,9.0,10.0,60,0.00,,,0.00,613,Wunderground v.1.15,2013-02-15 18:45:00,
2013-02-15 12:50:00,23.1,11.3,30.20,West,263,8.0,11.0,60,0.00,,,0.00,615,Wunderground v.1.15,2013-02-15 18:50:00,
2013-02-15 12:56:00,23.1,10.9,30.20,NW,305,9.0,13.0,59,0.00,,,0.00,606,Wunderground v.1.15,2013-02-15 18:56:00,
2013-02-15 13:01:00,23.4,11.9,30.20,NW,307,10.0,10.0,61,0.00,,,0.00,601,Wunderground v.1.15,2013-02-15 19:01:00,
2013-02-15 13:08:00,23.3,10.7,30.20,West,281,9.0,11.0,58,0.00,,,0.00,594,Wunderground v.1.15,2013-02-15 19:08:00,
2013-02-15 13:14:00,23.5,11.3,30.20,West,277,8.0,9.0,59,0.00,,,0.00,589,Wunderground v.1.15,2013-02-15 19:14:00,
2013-02-15 13:20:00,23.5,11.3,30.20,WNW,287,8.0,8.0,59,0.00,,,0.00,582,Wunderground v.1.15,2013-02-15 19:20:00,
2013-02-15 13:25:00,23.5,10.9,30.20,WNW,286,9.0,9.0,58,0.00,,,0.00,577,Wunderground v.1.15,2013-02-15 19:25:00,
2013-02-15 13:31:00,23.6,11.4,30.19,West,262,9.0,15.0,59,0.00,,,0.00,568,Wunderground v.1.15,2013-02-15 19:31:00,
2013-02-15 13:36:00,23.6,10.2,30.19,WNW,299,9.0,15.0,56,0.00,,,0.00,557,Wunderground v.1.15,2013-02-15 19:36:00,
2013-02-15 13:43:00,23.6,10.2,30.19,WSW,246,9.0,9.0,56,0.00,,,0.00,550,Wunderground v.1.15,2013-02-15 19:43:00,
2013-02-15 13:49:00,23.9,10.9,30.19,WNW,284,8.0,9.0,57,0.00,,,0.00,541,Wunderground v.1.15,2013-02-15 19:49:00,
2013-02-15 13:54:00,24.0,10.2,30.19,WNW,298,7.0,10.0,55,0.00,,,0.00,534,Wunderground v.1.15,2013-02-15 19:54:00,
2013-02-15 14:00:00,23.8,9.6,30.19,West,270,8.0,8.0,54,0.00,,,0.00,526,Wunderground v.1.15,2013-02-15 20:00:00,
2013-02-15 14:06:00,24.2,10.7,30.19,WSW,243,8.0,9.0,56,0.00,,,0.00,513,Wunderground v.1.15,2013-02-15 20:06:00,
2013-02-15 14:11:00,24.1,10.2,30.19,West,263,9.0,11.0,55,0.00,,,0.00,503,Wunderground v.1.15,2013-02-15 20:11:00,
2013-02-15 14:16:00,24.1,9.4,30.18,WNW,290,9.0,14.0,53,0.00,,,0.00,494,Wunderground v.1.15,2013-02-15 20:16:00,
2013-02-15 14:24:00,24.0,8.9,30.18,WNW,296,10.0,10.0,52,0.00,,,0.00,285,Wunderground v.1.15,2013-02-15 20:24:00,
2013-02-15 14:29:00,24.3,10.0,30.18,NW,322,8.0,11.0,54,0.00,,,0.00,471,Wunderground v.1.15,2013-02-15 20:29:00,
2013-02-15 14:34:00,24.3,9.6,30.18,West,280,8.0,11.0,53,0.00,,,0.00,450,Wunderground v.1.15,2013-02-15 20:34:00,
2013-02-15 14:39:00,24.2,9.9,30.18,WNW,289,8.0,11.0,54,0.00,,,0.00,422,Wunderground v.1.15,2013-02-15 20:39:00,
2013-02-15 14:45:00,24.4,9.3,30.18,WNW,287,7.0,14.0,52,0.00,,,0.00,374,Wunderground v.1.15,2013-02-15 20:45:00,
2013-02-15 14:50:00,24.4,8.8,30.18,WNW,303,8.0,9.0,51,0.00,,,0.00,345,Wunderground v.1.15,2013-02-15 20:50:00,
2013-02-15 14:55:00,24.3,8.3,30.18,WNW,292,9.0,13.0,50,0.00,,,0.00,322,Wunderground v.1.15,2013-02-15 20:55:00,
2013-02-15 15:01:00,24.4,8.4,30.18,NW,317,8.0,8.0,50,0.00,,,0.00,308,Wunderground v.1.15,2013-02-15 21:01:00,
2013-02-15 15:08:00,24.6,9.5,30.18,WNW,294,8.0,12.0,52,0.00,,,0.00,302,Wunderground v.1.15,2013-02-15 21:08:00,
2013-02-15 15:14:00,24.7,10.8,30.18,NW,312,7.0,10.0,55,0.00,,,0.00,322,Wunderground v.1.15,2013-02-15 21:14:00,
2013-02-15 15:19:00,24.8,10.5,30.19,West,259,7.0,10.0,54,0.00,,,0.00,320,Wunderground v.1.15,2013-02-15 21:19:00,
2013-02-15 15:25:00,24.7,8.7,30.19,West,265,7.0,11.0,50,0.00,,,0.00,313,Wunderground v.1.15,2013-02-15 21:25:00,
2013-02-15 15:31:00,24.5,7.6,30.19,WNW,288,8.0,8.0,48,0.00,,,0.00,306,Wunderground v.1.15,2013-02-15 21:31:00,
2013-02-15 15:36:00,24.8,7.9,30.19,WNW,290,8.0,8.0,48,0.00,,,0.00,309,Wunderground v.1.15,2013-02-15 21:36:00,
2013-02-15 15:43:00,24.4,8.4,30.19,WNW,285,7.0,7.0,50,0.00,,,0.00,271,Wunderground v.1.15,2013-02-15 21:43:00,
2013-02-15 15:49:00,24.7,9.5,30.19,West,281,6.0,7.0,52,0.00,,,0.00,62,Wunderground v.1.15,2013-02-15 21:49:00,
2013-02-15 15:55:00,24.5,8.5,30.19,NW,311,6.0,6.0,50,0.00,,,0.00,53,Wunderground v.1.15,2013-02-15 21:55:00,
2013-02-15 16:01:00,24.5,9.4,30.19,West,273,7.0,8.0,52,0.00,,,0.00,51,Wunderground v.1.15,2013-02-15 22:01:00,
2013-02-15 16:08:00,24.3,8.7,30.19,WNW,290,7.0,9.0,51,0.00,,,0.00,74,Wunderground v.1.15,2013-02-15 22:08:00,
2013-02-15 16:14:00,24.4,8.8,30.19,WNW,290,6.0,6.0,51,0.00,,,0.00,116,Wunderground v.1.15,2013-02-15 22:14:00,
2013-02-15 16:20:00,24.4,9.7,30.19,WNW,298,5.0,5.0,53,0.00,,,0.00,142,Wunderground v.1.15,2013-02-15 22:20:00,
2013-02-15 16:25:00,24.6,9.9,30.19,WNW,282,5.0,7.0,53,0.00,,,0.00,130,Wunderground v.1.15,2013-02-15 22:25:00,
2013-02-15 16:31:00,24.6,8.6,30.20,WNW,296,6.0,6.0,50,0.00,,,0.00,69,Wunderground v.1.15,2013-02-15 22:31:00,
2013-02-15 16:38:00,24.5,8.9,30.20,WNW,283,5.0,7.0,51,0.00,,,0.00,120,Wunderground v.1.15,2013-02-15 22:38:00,
2013-02-15 16:44:00,24.6,9.9,30.20,WNW,301,5.0,5.0,53,0.00,,,0.00,54,Wunderground v.1.15,2013-02-15 22:44:00,
2013-02-15 16:49:00,24.6,10.3,30.20,NW,304,5.0,8.0,54,0.00,,,0.00,44,Wunderground v.1.15,2013-02-15 22:49:00,
2013-02-15 16:55:00,24.7,9.1,30.20,West,270,6.0,7.0,51,0.00,,,0.00,33,Wunderground v.1.15,2013-02-15 22:55:00,
2013-02-15 17:00:00,24.6,9.0,30.20,WSW,255,6.0,8.0,51,0.00,,,0.00,26,Wunderground v.1.15,2013-02-15 23:00:00,
2013-02-15 17:06:00,24.4,9.3,30.20,WNW,284,6.0,8.0,52,0.00,,,0.00,18,Wunderground v.1.15,2013-02-15 23:06:00,
2013-02-15 17:11:00,24.3,8.7,30.20,WNW,294,5.0,5.0,51,0.00,,,0.00,16,Wunderground v.1.15,2013-02-15 23:11:00,
2013-02-15 17:16:00,24.2,9.1,30.20,WNW,294,4.0,5.0,52,0.00,,,0.00,12,Wunderground v.1.15,2013-02-15 23:16:00,
2013-02-15 17:23:00,24.0,9.7,30.20,WNW,294,4.0,5.0,54,0.00,,,0.00,5,Wunderground v.1.15,2013-02-15 23:23:00,
2013-02-15 17:28:00,24.0,9.7,30.20,WNW,303,4.0,5.0,54,0.00,,,0.00,0,Wunderground v.1.15,2013-02-15 23:28:00,
2013-02-15 17:34:00,23.8,10.0,30.20,NW,309,4.0,5.0,55,0.00,,,0.00,0,Wunderground v.1.15,2013-02-15 23:34:00,
2013-02-15 17:39:00,23.7,9.9,30.20,WNW,302,3.0,5.0,55,0.00,,,0.00,0,Wunderground v.1.15,2013-02-15 23:39:00,
2013-02-15 17:45:00,23.6,9.4,30.21,WNW,292,3.0,4.0,54,0.00,,,0.00,0,Wunderground v.1.15,2013-02-15 23:45:00,
2013-02-15 17:51:00,23.5,9.7,30.21,WNW,292,3.0,3.0,55,0.00,,,0.00,0,Wunderground v.1.15,2013-02-15 23:51:00,
2013-02-15 17:56:00,23.5,10.1,30.21,WNW,292,3.0,3.0,56,0.00,,,0.00,0,Wunderground v.1.15,2013-02-15 23:56:00,
2013-02-15 18:01:00,23.4,10.0,30.21,NW,307,3.0,4.0,56,0.00,,,0.00,0,Wunderground v.1.15,2013-02-16 00:01:00,
2013-02-15 18:08:00,23.4,10.0,30.21,WNW,300,3.0,4.0,56,0.00,,,0.00,0,Wunderground v.1.15,2013-02-16 00:08:00,
2013-02-15 18:13:00,23.3,9.9,30.21,WNW,300,3.0,3.0,56,0.00,,,0.00,0,Wunderground v.1.15,2013-02-16 00:13:00,
2013-02-15 18:19:00,23.3,9.9,30.21,WNW,300,3.0,3.0,56,0.00,,,0.00,0,Wunderground v.1.15,2013-02-16 00:19:00,
2013-02-15 18:24:00,23.2,10.6,30.21,WNW,300,2.0,3.0,58,0.00,,,0.00,0,Wunderground v.1.15,2013-02-16 00:24:00,
2013-02-15 18:30:00,23.1,10.5,30.21,WNW,300,2.0,2.0,58,0.00,,,0.00,0,Wunderground v.1.15,2013-02-16 00:30:00,
2013-02-15 18:35:00,22.9,11.4,30.21,WNW,300,2.0,3.0,61,0.00,,,0.00,0,Wunderground v.1.15,2013-02-16 00:35:00,
2013-02-15 18:41:00,22.7,10.9,30.21,WNW,300,2.0,2.0,60,0.00,,,0.00,0,Wunderground v.1.15,2013-02-16 00:41:00,
2013-02-15 18:46:00,22.6,11.2,30.22,WNW,300,2.0,2.0,61,0.00,,,0.00,0,Wunderground v.1.15,2013-02-16 00:46:00,
2013-02-15 18:53:00,22.3,10.9,30.22,WNW,300,2.0,3.0,61,0.00,,,0.00,0,Wunderground v.1.15,2013-02-16 00:53:00,
2013-02-15 18:58:00,22.3,10.9,30.22,WNW,300,2.0,3.0,61,0.00,,,0.00,0,Wunderground v.1.15,2013-02-16 00:58:00,
2013-02-15 19:03:00,22.3,10.9,30.22,WNW,300,2.0,3.0,61,0.00,,,0.00,0,Wunderground v.1.15,2013-02-16 01:03:00,
2013-02-15 19:09:00,22.2,10.8,30.22,WNW,300,2.0,3.0,61,0.00,,,0.00,0,Wunderground v.1.15,2013-02-16 01:09:00,
2013-02-15 19:14:00,22.2,10.8,30.22,WNW,300,2.0,2.0,61,0.00,,,0.00,0,Wunderground v.1.15,2013-02-16 01:14:00,
2013-02-15 19:20:00,22.3,10.9,30.21,WNW,284,2.0,3.0,61,0.00,,,0.00,0,Wunderground v.1.15,2013-02-16 01:20:00,
2013-02-15 19:25:00,22.3,10.1,30.21,WNW,283,3.0,5.0,59,0.00,,,0.00,0,Wunderground v.1.15,2013-02-16 01:25:00,
2013-02-15 19:31:00,22.4,10.2,30.21,WNW,296,4.0,5.0,59,0.00,,,0.00,0,Wunderground v.1.15,2013-02-16 01:31:00,
2013-02-15 19:36:00,22.4,10.2,30.21,WNW,293,5.0,7.0,59,0.00,,,0.00,0,Wunderground v.1.15,2013-02-16 01:36:00,
2013-02-15 19:41:00,22.3,9.7,30.21,NW,317,6.0,10.0,58,0.00,,,0.00,0,Wunderground v.1.15,2013-02-16 01:41:00,
2013-02-15 19:48:00,22.2,10.0,30.22,NW,312,7.0,10.0,59,0.00,,,0.00,0,Wunderground v.1.15,2013-02-16 01:48:00,
2013-02-15 19:53:00,22.0,9.8,30.22,NW,324,6.0,8.0,59,0.00,,,0.00,0,Wunderground v.1.15,2013-02-16 01:53:00,
2013-02-15 19:58:00,21.9,9.7,30.22,NNW,331,6.0,8.0,59,0.00,,,0.00,0,Wunderground v.1.15,2013-02-16 01:58:00,
2013-02-15 20:04:00,21.6,9.5,30.22,NW,306,7.0,8.0,59,0.00,,,0.00,0,Wunderground v.1.15,2013-02-16 02:04:00,
2013-02-15 20:10:00,21.4,9.3,30.22,NW,315,7.0,7.0,59,0.00,,,0.00,0,Wunderground v.1.15,2013-02-16 02:10:00,
2013-02-15 20:15:00,21.2,8.7,30.22,NW,306,8.0,10.0,58,0.00,,,0.00,0,Wunderground v.1.15,2013-02-16 02:15:00,
2013-02-15 20:21:00,21.0,8.9,30.22,NNW,344,7.0,9.0,59,0.00,,,0.00,0,Wunderground v.1.15,2013-02-16 02:21:00,
2013-02-15 20:28:00,20.8,8.7,30.22,NNW,331,8.0,11.0,59,0.00,,,0.00,0,Wunderground v.1.15,2013-02-16 02:28:00,
2013-02-15 20:34:00,20.5,8.8,30.22,NW,321,10.0,10.0,60,0.00,,,0.00,0,Wunderground v.1.15,2013-02-16 02:34:00,
2013-02-15 20:40:00,20.3,9.0,30.22,NW,317,8.0,8.0,61,0.00,,,0.00,0,Wunderground v.1.15,2013-02-16 02:40:00,
2013-02-15 20:45:00,20.2,8.9,30.23,WNW,303,7.0,12.0,61,0.00,,,0.00,0,Wunderground v.1.15,2013-02-16 02:45:00,
2013-02-15 20:50:00,20.0,8.7,30.23,NW,325,9.0,9.0,61,0.00,,,0.00,0,Wunderground v.1.15,2013-02-16 02:50:00,
2013-02-15 20:56:00,19.7,8.8,30.23,WNW,301,9.0,11.0,62,0.00,,,0.00,0,Wunderground v.1.15,2013-02-16 02:56:00,
2013-02-15 21:03:00,19.4,7.8,30.22,WNW,302,9.0,11.0,60,0.00,,,0.00,0,Wunderground v.1.15,2013-02-16 03:03:00,
2013-02-15 21:09:00,19.2,7.6,30.22,WNW,296,9.0,11.0,60,0.00,,,0.00,0,Wunderground v.1.15,2013-02-16 03:09:00,
2013-02-15 21:14:00,19.0,7.4,30.22,NW,311,9.0,9.0,60,0.00,,,0.00,0,Wunderground v.1.15,2013-02-16 03:14:00,
2013-02-15 21:19:00,18.8,7.2,30.23,NW,313,9.0,10.0,60,0.00,,,0.00,0,Wunderground v.1.15,2013-02-16 03:19:00,
2013-02-15 21:24:00,18.6,7.4,30.23,NW,315,9.0,9.0,61,0.00,,,0.00,0,Wunderground v.1.15,2013-02-16 03:24:00,
2013-02-15 21:30:00,18.3,7.1,30.23,WNW,303,9.0,9.0,61,0.00,,,0.00,0,Wunderground v.1.15,2013-02-16 03:30:00,
2013-02-15 21:35:00,18.1,6.9,30.23,NW,315,10.0,10.0,61,0.00,,,0.00,0,Wunderground v.1.15,2013-02-16 03:35:00,
2013-02-15 21:41:00,17.8,7.0,30.23,NW,306,9.0,9.0,62,0.00,,,0.00,0,Wunderground v.1.15,2013-02-16 03:41:00,
2013-02-15 21:46:00,17.7,7.2,30.23,WNW,296,8.0,9.0,63,0.00,,,0.00,0,Wunderground v.1.15,2013-02-16 03:46:00,
2013-02-15 21:52:00,17.5,7.0,30.23,WNW,290,7.0,10.0,63,0.00,,,0.00,0,Wunderground v.1.15,2013-02-16 03:52:00,
2013-02-15 21:58:00,17.3,6.8,30.23,NNW,331,8.0,10.0,63,0.00,,,0.00,0,Wunderground v.1.15,2013-02-16 03:58:00,
2013-02-15 22:04:00,17.1,7.0,30.23,NW,317,8.0,11.0,64,0.00,,,0.00,0,Wunderground v.1.15,2013-02-16 04:04:00,
2013-02-15 22:10:00,16.9,6.8,30.23,NW,304,9.0,12.0,64,0.00,,,0.00,0,Wunderground v.1.15,2013-02-16 04:10:00,
2013-02-15 22:15:00,16.8,6.4,30.23,NW,309,9.0,13.0,63,0.00,,,0.00,0,Wunderground v.1.15,2013-02-16 04:15:00,
2013-02-15 22:21:00,16.6,6.5,30.23,NW,320,9.0,13.0,64,0.00,,,0.00,0,Wunderground v.1.15,2013-02-16 04:21:00,
2013-02-15 22:26:00,16.4,6.3,30.23,NW,313,9.0,13.0,64,0.00,,,0.00,0,Wunderground v.1.15,2013-02-16 04:26:00,
2013-02-15 22:31:00,16.3,6.2,30.23,NW,311,10.0,14.0,64,0.00,,,0.00,0,Wunderground v.1.15,2013-02-16 04:31:00,
2013-02-15 22:38:00,16.1,6.1,30.23,NW,313,12.0,14.0,64,0.00,,,0.00,0,Wunderground v.1.15,2013-02-16 04:38:00,
2013-02-15 22:44:00,15.9,5.9,30.23,NNW,329,11.0,14.0,64,0.00,,,0.00,0,Wunderground v.1.15,2013-02-16 04:44:00,
2013-02-15 22:50:00,15.7,6.0,30.23,NW,312,10.0,10.0,65,0.00,,,0.00,0,Wunderground v.1.15,2013-02-16 04:50:00,
2013-02-15 22:56:00,15.5,6.2,30.23,WNW,288,7.0,10.0,66,0.00,,,0.00,0,Wunderground v.1.15,2013-02-16 04:56:00,
2013-02-15 23:00:00,15.4,6.4,30.23,NW,309,6.0,8.0,67,0.00,,,0.00,0,Wunderground v.1.15,2013-02-16 05:00:00,
2013-02-15 23:03:00,15.4,6.4,30.23,NW,307,6.0,10.0,67,0.00,,,0.00,0,Wunderground v.1.15,2013-02-16 05:03:00,
2013-02-15 23:04:00,15.4,6.4,30.23,NNW,343,6.0,10.0,67,0.00,,,0.00,0,Wunderground v.1.15,2013-02-16 05:04:00,
2013-02-15 23:09:00,15.3,6.3,30.23,NW,314,8.0,10.0,67,0.00,,,0.00,0,Wunderground v.1.15,2013-02-16 05:09:00,
2013-02-15 23:14:00,15.1,6.1,30.23,NW,311,8.0,14.0,67,0.00,,,0.00,0,Wunderground v.1.15,2013-02-16 05:14:00,
2013-02-15 23:19:00,15.1,5.8,30.22,NNW,336,9.0,14.0,66,0.00,,,0.00,0,Wunderground v.1.15,2013-02-16 05:19:00,
2013-02-15 23:25:00,14.9,5.9,30.22,WNW,282,8.0,10.0,67,0.00,,,0.00,0,Wunderground v.1.15,2013-02-16 05:25:00,
2013-02-15 23:29:00,14.7,6.0,30.22,WNW,292,6.0,10.0,68,0.00,,,0.00,0,Wunderground v.1.15,2013-02-16 05:29:00,
2013-02-15 23:34:00,14.6,6.0,30.23,WNW,302,6.0,8.0,68,0.00,,,0.00,0,Wunderground v.1.15,2013-02-16 05:34:00,
2013-02-15 23:40:00,14.5,5.9,30.23,NW,310,7.0,11.0,68,0.00,,,0.00,0,Wunderground v.1.15,2013-02-16 05:40:00,
2013-02-15 23:46:00,14.4,5.8,30.23,WNW,302,7.0,11.0,68,0.00,,,0.00,0,Wunderground v.1.15,2013-02-16 05:46:00,
2013-02-15 23:51:00,14.2,5.6,30.23,WNW,300,6.0,6.0,68,0.00,,,0.00,0,Wunderground v.1.15,2013-02-16 05:51:00,
2013-02-15 23:56:00,14.1,5.8,30.23,WNW,298,5.0,7.0,69,0.00,,,0.00,0,Wunderground v.1.15,2013-02-16 05:56:00,